x

Smith Island, Wa (sisw1) Weather Station

8:50pm - Mon 18th Jun 2018 All times are PDT. -7 hours from GMT.

  • Wind
    11mph, 14mph gusts
  • Air Temp 57°f
  • Sea Pressure 1013.7mb
  • Smith Island, Wa
  • Smith Island, Wa

More Historic Weather Station data

Upgrade to MSW Pro to gain access to the past 30 days of data for over 8000 Wavebouys and Weather Stations around the globe.

Join

Comparision Forecast

View Surf forecast
   
Mon 06/18 8:50pm 11 14 mph 1013.7mb 57f
7:50pm 5 8 mph 1013.3mb 58f
6:50pm 14 16 mph 1013.1mb 60f
5:50pm 14 15 mph 1013.1mb 60f
4:50pm 11 14 mph 1013.3mb 63f
3:50pm 6 8 mph 1013.4mb 67f
2:50pm 8 9 mph 1013.5mb 68f
1:50pm 3 5 mph 1013.7mb 65f
12:50pm 6 7 mph 1013.8mb 63f
11:50am  -  1 mph 1014.3mb 62f
10:50am 2 3 mph 1014.5mb 59f
9:50am 5 7 mph 1014.4mb 60f
8:50am 2 2 mph 1014.4mb 57f
7:50am 2 5 mph 1014mb 55f
6:50am 7 10 mph 1013.5mb 57f
5:50am 7 9 mph 1013.2mb 56f
4:50am 10 14 mph 1012.7mb 57f
3:50am 10 13 mph 1012.6mb 56f
2:50am 9 10 mph 1012.2mb 60f
1:50am 10 11 mph 1011.9mb 62f
12:50am 10 11 mph 1011.6mb 59f
Sun 06/17 11:50pm 8 10 mph 1011.2mb 58f
10:50pm 3 7 mph 1011.2mb 60f
9:50pm 3 6 mph 1011mb 60f
8:50pm 2 3 mph 1011mb 61f
7:50pm 7 11 mph 1011mb 62f
6:50pm 8 9 mph 1011mb 68f
5:50pm 2 3 mph 1011.2mb 65f
4:50pm 5 7 mph 1011.6mb 64f
3:50pm 5 7 mph 1011.8mb 67f
2:50pm 5 6 mph 1012.4mb 64f
1:50pm 6 8 mph 1012.9mb 63f
12:50pm 9 10 mph 1013.5mb 66f
11:50am 8 9 mph 1014.1mb 64f
10:50am 6 7 mph 1014.6mb 61f
9:50am 1 2 mph 1015mb 57f
8:50am 7 7 mph 1015.2mb 57f
7:50am 6 6 mph 1015.3mb 56f
6:50am 1 2 mph 1015.2mb 56f
5:50am 5 5 mph 1015mb 56f
4:50am 3 6 mph 1014.8mb 55f
3:50am 13 14 mph 1014.7mb 60f
2:50am 14 15 mph 1014.6mb 61f
1:50am 2 2 mph 1014.2mb 61f
12:50am 2 5 mph 1014.3mb 59f
Sat 06/16 11:50pm 1 3 mph 1014.5mb 56f
10:50pm 5 7 mph 1014.6mb 56f
9:50pm 5 7 mph 1014.4mb 62f
8:50pm 8 10 mph 1014.9mb 63f
7:50pm 17 21 mph 1013.9mb 61f
6:50pm 16 18 mph 1013.9mb 59f
5:50pm 17 20 mph 1013.9mb 63f
4:50pm 16 20 mph 1014.3mb 65f
3:50pm 18 21 mph 1014.6mb 62f
2:50pm 14 17 mph 1015.2mb 58f
1:50pm 15 17 mph 1015.6mb 60f
12:50pm 16 20 mph 1015.8mb 56f
11:50am 13 15 mph 1016.1mb 58f
10:50am 16 18 mph 1015.8mb 58f
9:50am 16 17 mph 1015.8mb 56f
8:50am 15 18 mph 1015.8mb 54f
7:50am 14 16 mph 1015.3mb 55f
6:50am 14 17 mph 1015.2mb 55f
5:50am 17 18 mph 1014.5mb 54f
4:50am 17 21 mph 1013.8mb 53f
3:50am 16 18 mph 1013.8mb 53f
2:50am 1 2 mph 1014mb 53f
1:50am 10 11 mph 1013.8mb 53f
12:50am 6 8 mph 1013.3mb 52f
Fri 06/15 11:50pm 6 8 mph 1013.3mb 52f
10:50pm 10 13 mph 1013.2mb 53f
9:50pm 5 7 mph 1013.3mb 53f
8:50pm 9 13 mph 1013.1mb 53f
7:50pm 9 10 mph 1013.2mb 53f
6:50pm 8 10 mph 1013.4mb 53f
5:50pm 14 16 mph 1013.8mb 55f
4:50pm 14 17 mph 1014.3mb 55f
3:50pm 9 11 mph 1014.7mb 56f
2:50pm 9 10 mph 1015.2mb 58f
1:50pm 14 16 mph 1015.5mb 56f
12:50pm 13 15 mph 1015.8mb 55f
11:50am 11 15 mph 1015.9mb 54f
10:50am 9 11 mph 1016mb 54f
9:50am 9 10 mph 1016.2mb 52f
8:50am 10 11 mph 1016mb 51f
7:50am 14 15 mph 1015.8mb 51f
6:50am 14 16 mph 1015.6mb 51f
5:50am 15 16 mph 1015.5mb 51f